Time;durP1;ratioP1;P1;durP2;ratioP2;P2;SDS_P1;SDS_P2;PMS_P1;PMS_P2;Temp;Humidity;BMP_temperature;BMP_pressure;BME280_temperature;BME280_humidity;BME280_pressure;Samples;Min_cycle;Max_cycle;Signal;HPM_P1;HPM_P2
2021/08/29 00:03:37;;;;;;;8.30;4.25;;;;;;;15.86;67.13;100039.69;10474137;28;20147;-62
2021/08/29 00:08:39;;;;;;;6.43;4.05;;;;;;;15.83;67.29;100042.59;10446947;28;20478;-62
2021/08/29 00:13:41;;;;;;;7.32;5.10;;;;;;;15.85;67.44;100038.03;10446711;28;20482;-62
2021/08/29 00:18:43;;;;;;;5.68;4.20;;;;;;;15.79;67.03;100030.59;10446055;28;20086;-62
2021/08/29 00:23:45;;;;;;;5.78;4.30;;;;;;;15.82;66.91;100034.78;10447144;28;20064;-62
2021/08/29 00:28:46;;;;;;;6.55;4.03;;;;;;;15.86;66.99;100029.13;10445511;28;20049;-62
2021/08/29 00:33:49;;;;;;;5.60;3.78;;;;;;;15.87;66.87;100033.47;10446631;28;20163;-62
2021/08/29 00:38:51;;;;;;;6.13;3.30;;;;;;;15.83;66.37;100032.03;10446543;28;20052;-62
2021/08/29 00:43:53;;;;;;;5.32;2.90;;;;;;;15.72;66.61;100021.50;10445779;28;20047;-63
2021/08/29 00:48:55;;;;;;;5.47;3.05;;;;;;;15.77;66.61;100018.50;10445934;28;20127;-63
2021/08/29 00:53:57;;;;;;;4.32;2.70;;;;;;;15.69;66.57;100008.56;10446096;28;20582;-62
2021/08/29 00:58:59;;;;;;;4.00;2.40;;;;;;;15.68;66.33;100008.66;10445129;28;20069;-62
2021/08/29 01:04:06;;;;;;;4.28;2.30;;;;;;;15.68;66.04;100006.03;10445950;28;20168;-62
2021/08/29 01:09:11;;;;;;;7.15;2.40;;;;;;;15.63;66.39;100006.41;10446467;28;20146;-62
2021/08/29 01:14:15;;;;;;;5.72;2.60;;;;;;;15.66;66.76;100002.69;10428440;28;20517;-62
2021/08/29 01:19:18;;;;;;;4.95;2.50;;;;;;;15.62;66.45;100001.25;10445851;28;20096;-62
2021/08/29 01:24:22;;;;;;;5.93;2.47;;;;;;;15.53;66.34;99994.91;10445873;28;20049;-62
2021/08/29 01:29:27;;;;;;;4.20;2.45;;;;;;;15.35;66.86;100006.84;10442139;28;20152;-62
2021/08/29 01:34:28;;;;;;;4.05;2.25;;;;;;;15.41;66.56;99998.47;10445123;28;20140;-62
2021/08/29 01:39:31;;;;;;;5.22;2.50;;;;;;;15.34;66.54;99997.28;10445189;28;20107;-62
2021/08/29 01:44:33;;;;;;;3.97;2.50;;;;;;;15.35;66.05;100009.50;10435652;28;20128;-62
2021/08/29 01:49:36;;;;;;;5.47;2.95;;;;;;;15.32;66.65;100005.31;10444193;28;20072;-62
2021/08/29 01:54:37;;;;;;;6.00;2.80;;;;;;;15.33;66.65;100006.97;10444353;28;20080;-62
2021/08/29 01:59:40;;;;;;;3.72;2.58;;;;;;;15.40;66.41;100009.97;10431629;28;20084;-62
2021/08/29 02:04:44;;;;;;;5.95;3.00;;;;;;;15.51;66.25;100009.19;10450203;28;20083;-62
2021/08/29 02:09:49;;;;;;;4.35;2.85;;;;;;;15.50;66.17;100016.25;10451713;28;20098;-62
2021/08/29 02:15:01;;;;;;;6.20;3.28;;;;;;;15.55;66.03;100018.53;10451650;28;20079;-62
2021/08/29 02:20:07;;;;;;;6.53;3.20;;;;;;;15.54;65.92;100020.31;10425835;28;20053;-62
2021/08/29 02:25:09;;;;;;;6.07;3.47;;;;;;;15.52;66.17;100018.75;10448951;28;20484;-62
2021/08/29 02:30:12;;;;;;;5.88;3.22;;;;;;;15.51;66.23;100007.34;10451983;28;20100;-62
2021/08/29 02:35:14;;;;;;;7.05;3.60;;;;;;;15.55;65.77;100011.44;10451832;28;20045;-62
2021/08/29 02:40:17;;;;;;;7.75;3.97;;;;;;;15.47;66.02;100008.53;10433511;28;20092;-62
2021/08/29 02:45:19;;;;;;;7.45;4.65;;;;;;;15.37;66.26;100010.22;10434601;28;20095;-62
2021/08/29 02:50:22;;;;;;;9.23;4.60;;;;;;;15.37;65.85;99999.66;10450167;28;20067;-62
2021/08/29 02:55:25;;;;;;;8.13;5.97;;;;;;;15.34;65.97;100000.78;10451595;28;20076;-62
2021/08/29 03:00:28;;;;;;;8.55;6.55;;;;;;;15.31;66.13;99997.50;10453909;28;20109;-62
2021/08/29 03:05:30;;;;;;;9.27;6.90;;;;;;;15.28;65.91;100000.41;10454370;28;20056;-62
2021/08/29 03:10:33;;;;;;;8.70;6.47;;;;;;;15.26;66.28;99986.50;10452790;28;20089;-62
2021/08/29 03:15:35;;;;;;;10.43;7.03;;;;;;;15.31;66.19;99995.72;10448414;28;20049;-62
2021/08/29 03:20:37;;;;;;;8.48;6.80;;;;;;;15.28;66.85;99985.44;10451888;28;20115;-62
2021/08/29 03:25:39;;;;;;;10.07;7.10;;;;;;;15.34;66.74;99986.75;10450573;28;20146;-62
2021/08/29 03:30:40;;;;;;;10.27;6.97;;;;;;;15.35;66.66;99989.25;10450669;28;20662;-62
2021/08/29 03:35:43;;;;;;;11.25;7.40;;;;;;;15.32;66.75;99983.41;10450414;28;20084;-62
2021/08/29 03:40:45;;;;;;;10.50;7.47;;;;;;;15.24;66.97;99985.78;10464372;28;20140;-62
2021/08/29 03:45:47;;;;;;;7.95;6.53;;;;;;;15.20;66.81;99984.34;10446106;28;20107;-62
2021/08/29 03:50:50;;;;;;;8.02;6.43;;;;;;;15.18;66.89;99973.94;10449577;28;20080;-62
2021/08/29 03:55:52;;;;;;;7.50;5.72;;;;;;;15.17;66.80;99981.94;10450014;28;20202;-62
2021/08/29 04:00:54;;;;;;;7.43;5.63;;;;;;;15.17;66.51;99977.53;10450116;28;20460;-62
2021/08/29 04:06:01;;;;;;;9.65;5.05;;;;;;;15.14;66.28;99984.84;10449216;28;20049;-62
2021/08/29 04:11:04;;;;;;;6.18;4.90;;;;;;;15.16;66.48;99980.28;10442982;28;20072;-62
2021/08/29 04:16:06;;;;;;;6.35;4.75;;;;;;;15.19;66.08;99972.13;10433206;28;20076;-62
2021/08/29 04:21:08;;;;;;;5.50;4.28;;;;;;;15.22;66.19;99978.03;10446246;28;20048;-62
2021/08/29 04:26:11;;;;;;;6.43;4.63;;;;;;;15.23;66.08;99976.19;10431594;28;20477;-62
2021/08/29 04:31:17;;;;;;;6.20;4.10;;;;;;;15.21;65.97;99980.75;10448965;28;20135;-62
2021/08/29 04:36:19;;;;;;;5.97;4.35;;;;;;;15.14;65.88;99982.19;10448234;28;20382;-62
2021/08/29 04:41:21;;;;;;;7.05;4.35;;;;;;;15.14;65.94;99979.56;10447151;28;20545;-62
2021/08/29 04:46:23;;;;;;;6.07;4.50;;;;;;;15.15;65.98;99983.84;10448385;28;20080;-62
2021/08/29 04:51:25;;;;;;;8.20;4.50;;;;;;;15.14;66.00;99980.38;10448265;28;20045;-62
2021/08/29 04:56:26;;;;;;;6.72;4.35;;;;;;;15.14;65.79;99979.56;10447571;28;20091;-62
2021/08/29 05:01:30;;;;;;;7.00;4.75;;;;;;;15.17;65.81;99989.84;10447755;28;20099;-62
2021/08/29 05:06:33;;;;;;;6.38;4.55;;;;;;;15.05;66.00;99985.53;10447020;28;20608;-62
2021/08/29 05:11:34;;;;;;;6.28;4.53;;;;;;;15.10;66.00;99999.19;10445428;28;20470;-62
2021/08/29 05:16:36;;;;;;;6.43;3.20;;;;;;;14.99;66.58;99999.19;10447328;28;20464;-62
2021/08/29 05:21:38;;;;;;;6.32;3.60;;;;;;;14.88;66.68;99999.19;10446464;28;20052;-62
2021/08/29 05:26:40;;;;;;;8.27;4.07;;;;;;;15.03;66.95;100000.63;10445429;28;20473;-62
2021/08/29 05:31:41;;;;;;;7.63;3.25;;;;;;;15.08;66.76;99999.28;10446489;28;20072;-62
2021/08/29 05:36:43;;;;;;;6.00;4.05;;;;;;;15.12;66.57;99999.91;10445996;28;20048;-62
2021/08/29 05:41:45;;;;;;;6.30;3.80;;;;;;;15.22;66.69;99998.25;10460074;28;20068;-62
2021/08/29 05:46:46;;;;;;;10.57;4.05;;;;;;;15.14;66.78;99988.28;10435271;28;20076;-63
2021/08/29 05:51:48;;;;;;;6.75;3.78;;;;;;;15.10;67.11;99994.75;10425960;28;20560;-63
2021/08/29 05:56:50;;;;;;;8.50;4.40;;;;;;;15.19;66.99;99990.56;10442958;28;20182;-63
2021/08/29 06:01:52;;;;;;;7.70;4.00;;;;;;;15.18;67.17;99986.28;10444355;28;20052;-63
2021/08/29 06:06:54;;;;;;;7.32;4.00;;;;;;;15.10;66.93;99993.94;10444046;28;20044;-64
2021/08/29 06:11:56;;;;;;;7.57;4.43;;;;;;;15.12;67.06;99992.03;10423556;28;20071;-63
2021/08/29 06:16:58;;;;;;;8.13;4.05;;;;;;;15.14;67.08;99983.00;10457681;28;20553;-63
2021/08/29 06:22:00;;;;;;;7.13;4.28;;;;;;;14.88;67.39;99978.91;10442769;28;20041;-63
2021/08/29 06:27:02;;;;;;;8.52;3.83;;;;;;;14.99;67.38;99978.09;10443950;28;20454;-62
2021/08/29 06:32:04;;;;;;;7.18;3.80;;;;;;;15.10;67.13;99973.66;10443569;28;20109;-63
2021/08/29 06:37:06;;;;;;;8.32;4.47;;;;;;;15.20;67.01;99963.28;10448725;28;20093;-63
2021/08/29 06:42:08;;;;;;;7.60;4.10;;;;;;;15.36;66.36;99961.97;10442710;28;20091;-63
2021/08/29 06:47:10;;;;;;;8.20;3.70;;;;;;;15.40;66.13;99957.28;10447154;28;20132;-63
2021/08/29 06:52:11;;;;;;;11.55;4.30;;;;;;;15.59;66.33;99951.41;10438871;28;20083;-63
2021/08/29 06:57:13;;;;;;;8.25;4.35;;;;;;;15.66;66.54;99950.78;10450881;28;20084;-63
2021/08/29 07:02:15;;;;;;;8.68;4.88;;;;;;;15.75;66.63;99959.78;10438938;28;20437;-63
2021/08/29 07:07:17;;;;;;;6.80;4.55;;;;;;;15.78;65.87;99952.44;10449071;28;20049;-63
2021/08/29 07:12:19;;;;;;;9.45;4.95;;;;;;;15.81;65.54;99951.38;10434175;28;20148;-63
2021/08/29 07:17:21;;;;;;;8.55;5.15;;;;;;;15.85;65.64;99948.34;10434510;28;20263;-63
2021/08/29 07:22:23;;;;;;;8.45;5.32;;;;;;;16.03;65.07;99953.94;10447301;28;20136;-63
2021/08/29 07:27:24;;;;;;;7.88;5.78;;;;;;;16.28;64.75;99942.19;10449315;28;20448;-62
2021/08/29 07:32:26;;;;;;;10.90;6.35;;;;;;;16.52;63.67;99946.28;10440106;28;20128;-63
2021/08/29 07:37:28;;;;;;;9.32;6.22;;;;;;;16.67;63.79;99944.16;10449091;28;20079;-63
2021/08/29 07:42:30;;;;;;;9.57;5.60;;;;;;;16.51;63.45;99941.16;10449458;28;20060;-63
2021/08/29 07:47:32;;;;;;;9.43;6.32;;;;;;;16.54;63.87;99938.25;10447060;28;20045;-63
2021/08/29 07:52:34;;;;;;;10.85;6.10;;;;;;;16.50;63.49;99942.09;10438607;28;20096;-64
2021/08/29 07:57:35;;;;;;;10.35;6.82;;;;;;;16.45;63.53;99939.00;10436223;28;20056;-62
2021/08/29 08:02:37;;;;;;;8.43;6.18;;;;;;;16.41;63.85;99946.31;10440299;28;20125;-63
2021/08/29 08:07:39;;;;;;;10.90;6.45;;;;;;;16.33;63.75;99945.25;10431790;28;20045;-63
2021/08/29 08:12:41;;;;;;;9.63;6.38;;;;;;;16.19;64.10;99949.06;10408118;28;20766;-62
2021/08/29 08:17:43;;;;;;;9.05;7.15;;;;;;;15.96;64.35;99956.22;10435199;28;20132;-63
2021/08/29 08:22:47;;;;;;;9.40;6.72;;;;;;;16.03;64.51;99960.03;10424110;28;20128;-63
2021/08/29 08:27:49;;;;;;;9.85;7.30;;;;;;;15.97;64.84;99959.69;10460260;28;20080;-63
2021/08/29 08:32:51;;;;;;;11.00;7.25;;;;;;;16.04;65.03;99966.16;10458976;28;20124;-63
2021/08/29 08:37:53;;;;;;;11.25;6.70;;;;;;;16.03;64.53;99953.94;10454058;28;20231;-63
2021/08/29 08:42:55;;;;;;;12.25;7.45;;;;;;;16.06;64.38;99954.50;10475610;28;20076;-63
2021/08/29 08:47:59;;;;;;;8.45;6.50;;;;;;;16.21;64.31;99958.53;10466117;28;20146;-63
2021/08/29 08:53:04;;;;;;;9.43;6.45;;;;;;;16.30;64.05;99954.31;10432820;28;20137;-64
2021/08/29 08:58:06;;;;;;;7.90;5.70;;;;;;;16.20;63.99;99950.75;10458908;28;20041;-64
2021/08/29 09:03:09;;;;;;;11.32;5.78;;;;;;;16.15;64.42;99956.41;10446930;28;20537;-63
2021/08/29 09:08:11;;;;;;;7.72;5.43;;;;;;;16.22;64.21;99944.34;10448345;28;20374;-63
2021/08/29 09:13:13;;;;;;;8.70;5.43;;;;;;;16.23;64.04;99955.75;10472959;28;20583;-63
2021/08/29 09:18:15;;;;;;;8.75;5.28;;;;;;;16.26;64.12;99958.16;10472534;28;20056;-63
2021/08/29 09:23:19;;;;;;;7.03;5.10;;;;;;;16.39;63.77;99958.81;10467770;28;20450;-62
2021/08/29 09:28:23;;;;;;;8.57;4.93;;;;;;;16.46;63.84;99960.00;10466027;28;20890;-63
2021/08/29 09:33:30;;;;;;;8.48;4.97;;;;;;;16.55;63.28;99964.50;10478087;28;20440;-63
2021/08/29 09:38:40;;;;;;;9.70;5.22;;;;;;;16.55;62.73;99959.22;10456993;28;20486;-63
2021/08/29 09:43:41;;;;;;;6.25;4.40;;;;;;;16.49;63.50;99964.19;10439378;28;20127;-63
2021/08/29 09:48:47;;;;;;;8.43;4.40;;;;;;;16.57;62.71;99964.41;10472113;28;20072;-63
2021/08/29 09:53:49;;;;;;;8.20;4.78;;;;;;;16.79;62.65;99959.78;10450143;28;20036;-63
2021/08/29 09:58:53;;;;;;;6.18;4.18;;;;;;;16.89;62.36;99954.59;10466246;28;20919;-63
2021/08/29 10:03:54;;;;;;;9.75;4.78;;;;;;;16.82;62.27;99961.34;10477279;28;20443;-64
2021/08/29 10:09:02;;;;;;;10.30;4.72;;;;;;;16.89;62.08;99955.44;10475127;28;20098;-63
2021/08/29 10:14:05;;;;;;;7.28;4.35;;;;;;;16.84;62.23;99952.31;10447492;28;20566;-63
2021/08/29 10:19:13;;;;;;;9.15;4.80;;;;;;;16.84;62.60;99951.47;10448151;28;20127;-63
2021/08/29 10:24:16;;;;;;;6.90;4.35;;;;;;;16.98;62.02;99943.22;10465636;28;20095;-63
2021/08/29 10:29:25;;;;;;;6.30;3.97;;;;;;;17.08;61.66;99943.28;10463369;28;20147;-63
2021/08/29 10:34:28;;;;;;;7.32;3.80;;;;;;;17.28;61.05;99937.91;10476241;28;20045;-63
2021/08/29 10:39:30;;;;;;;6.32;3.90;;;;;;;17.31;61.38;99935.00;10440604;28;20068;-63
2021/08/29 10:44:33;;;;;;;7.47;3.72;;;;;;;17.40;61.82;99941.34;10450129;28;20479;-63
2021/08/29 10:49:36;;;;;;;6.82;3.95;;;;;;;17.44;61.44;99934.81;10463277;28;20076;-63
2021/08/29 10:54:50;;;;;;;6.38;3.80;;;;;;;17.50;61.57;99937.75;10439441;28;20162;-63
2021/08/29 11:00:08;;;;;;;6.68;3.65;;;;;;;17.38;62.42;99933.56;10446623;28;20099;-63
2021/08/29 11:05:16;;;;;;;4.70;3.50;;;;;;;17.52;61.74;99938.47;10451284;28;20190;-63
2021/08/29 11:10:39;;;;;;;7.03;3.58;;;;;;;17.44;62.37;99935.66;10441423;28;20081;-61
2021/08/29 11:15:41;;;;;;;5.57;3.70;;;;;;;17.62;61.58;99923.44;10439373;28;20804;-62
2021/08/29 11:20:57;;;;;;;7.50;3.58;;;;;;;17.62;61.07;99926.09;10455174;28;20052;-61
2021/08/29 11:26:27;;;;;;;7.15;3.50;;;;;;;17.67;61.64;99923.84;10458630;28;20767;-62
2021/08/29 11:31:54;;;;;;;5.57;3.40;;;;;;;17.75;61.49;99915.25;10446752;28;20080;-61
2021/08/29 11:36:56;;;;;;;5.57;3.38;;;;;;;17.88;61.33;99918.47;10463451;28;20230;-61
2021/08/29 11:42:18;;;;;;;4.75;3.25;;;;;;;17.77;61.69;99921.25;10466363;28;20088;-62
2021/08/29 11:47:22;;;;;;;4.10;3.33;;;;;;;17.87;61.60;99918.59;10470578;28;20512;-62
2021/08/29 11:52:29;;;;;;;5.32;3.53;;;;;;;17.88;61.33;99922.91;10466213;28;20120;-62
2021/08/29 11:57:31;;;;;;;9.23;7.22;;;;;;;17.76;61.75;99915.13;10436086;28;20088;-61
2021/08/29 12:02:43;;;;;;;10.15;8.32;;;;;;;17.76;61.68;99916.91;10446808;28;20151;-62
2021/08/29 12:07:54;;;;;;;7.15;4.93;;;;;;;17.82;61.49;99914.56;10457446;28;20049;-61
2021/08/29 12:12:57;;;;;;;3.72;2.70;;;;;;;18.01;61.44;99907.59;10473885;28;20239;-62
2021/08/29 12:18:06;;;;;;;4.68;2.83;;;;;;;18.09;60.19;99899.81;10471734;28;20087;-61
2021/08/29 12:23:08;;;;;;;2.67;1.88;;;;;;;18.21;59.57;99896.06;10451845;28;20168;-62
2021/08/29 12:28:13;;;;;;;3.05;2.08;;;;;;;18.34;60.17;99896.63;10457005;28;20045;-62
2021/08/29 12:33:16;;;;;;;3.92;2.08;;;;;;;18.23;59.59;99891.47;10448988;28;20106;-62
2021/08/29 12:38:26;;;;;;;3.47;2.10;;;;;;;18.13;60.30;99885.31;10481724;28;20489;-61
2021/08/29 12:43:29;;;;;;;3.03;2.03;;;;;;;18.59;59.51;99880.94;10451715;28;20064;-61
2021/08/29 12:48:31;;;;;;;3.15;2.08;;;;;;;18.74;59.59;99886.63;10467420;28;20068;-61
2021/08/29 12:53:34;;;;;;;2.13;1.52;;;;;;;18.48;58.80;99886.38;10452636;28;20493;-62
2021/08/29 12:58:36;;;;;;;1.83;1.30;;;;;;;18.12;60.33;99886.28;10440790;28;20123;-62
2021/08/29 13:03:50;;;;;;;2.13;1.30;;;;;;;17.93;59.86;99881.00;9549867;28;10000740;-62
2021/08/29 13:08:52;;;;;;;1.87;1.20;;;;;;;17.78;60.28;99885.88;9540104;28;10000821;-62
2021/08/29 13:13:57;;;;;;;2.30;1.35;;;;;;;17.78;60.03;99886.72;9541380;28;10000140;-61
2021/08/29 13:19:00;;;;;;;2.42;1.45;;;;;;;18.16;59.64;99883.22;10439939;28;20051;-61
2021/08/29 13:24:26;;;;;;;2.50;1.20;;;;;;;18.33;58.99;99874.59;10443523;28;20076;-62
2021/08/29 13:29:36;;;;;;;1.73;1.45;;;;;;;18.56;58.24;99872.47;10444391;28;20124;-62
2021/08/29 13:34:39;;;;;;;2.85;1.35;;;;;;;18.82;59.04;99868.19;10452002;28;20053;-62
2021/08/29 13:39:43;;;;;;;1.80;1.38;;;;;;;18.85;58.17;99865.22;10456677;28;20481;-62
2021/08/29 13:44:47;;;;;;;1.52;1.20;;;;;;;19.05;57.69;99856.25;10446446;28;20048;-62
2021/08/29 13:49:50;;;;;;;1.35;1.13;;;;;;;19.18;57.31;99856.72;9708041;28;10000911;-61
2021/08/29 13:54:52;;;;;;;1.73;1.10;;;;;;;19.17;57.41;99855.09;9540988;28;10000867;-61
2021/08/29 13:59:54;;;;;;;1.40;1.17;;;;;;;19.05;57.25;99852.78;10437833;28;20040;-61
2021/08/29 14:04:56;;;;;;;1.38;1.13;;;;;;;18.83;57.95;99859.22;10448422;28;20128;-62
2021/08/29 14:09:58;;;;;;;1.65;1.15;;;;;;;18.78;58.09;99860.66;10458085;28;20040;-61
2021/08/29 14:15:00;;;;;;;2.13;1.30;;;;;;;18.67;58.34;99863.50;10433259;28;20053;-61
2021/08/29 14:20:04;;;;;;;2.05;1.30;;;;;;;18.64;58.65;99864.63;10455732;28;20064;-61
2021/08/29 14:25:07;;;;;;;2.17;1.48;;;;;;;18.95;58.34;99852.75;10454071;28;20052;-62
2021/08/29 14:30:10;;;;;;;1.23;1.10;;;;;;;19.07;57.53;99856.94;10454518;28;20457;-61
2021/08/29 14:35:15;;;;;;;2.78;1.30;;;;;;;19.21;57.55;99847.66;10442374;28;20060;-61
2021/08/29 14:40:21;;;;;;;2.50;1.20;;;;;;;19.09;57.93;99848.84;10454899;28;20557;-61
2021/08/29 14:45:23;;;;;;;1.55;1.05;;;;;;;18.89;58.45;99848.06;10455990;28;20796;-61
2021/08/29 14:50:30;;;;;;;1.63;1.00;;;;;;;18.81;58.01;99857.72;10440583;28;20061;-61
2021/08/29 14:55:33;;;;;;;0.85;0.85;;;;;;;18.72;58.27;99861.25;10430718;28;20391;-61
2021/08/29 15:00:35;;;;;;;2.65;0.80;;;;;;;18.64;58.57;99861.97;10420265;28;20045;-61
2021/08/29 15:05:38;;;;;;;2.17;1.05;;;;;;;18.60;58.38;99864.09;10463942;28;20048;-61
2021/08/29 15:10:40;;;;;;;1.08;0.98;;;;;;;18.60;58.67;99864.09;10450790;28;20114;-60
2021/08/29 15:15:42;;;;;;;1.70;1.05;;;;;;;18.51;58.77;99846.41;10477490;28;20102;-60
2021/08/29 15:20:43;;;;;;;1.02;0.93;;;;;;;18.57;58.67;99853.75;10468881;28;20135;-61
2021/08/29 15:25:45;;;;;;;1.20;1.10;;;;;;;18.56;58.76;99854.72;10447757;28;20080;-62
2021/08/29 15:30:47;;;;;;;1.42;1.20;;;;;;;18.57;59.25;99850.28;10451780;28;20068;-62
2021/08/29 15:35:49;;;;;;;2.13;1.30;;;;;;;18.28;59.49;99854.81;10472618;28;20127;-61
2021/08/29 15:40:51;;;;;;;1.83;1.25;;;;;;;18.09;60.06;99853.00;10457578;28;20603;-61
2021/08/29 15:45:53;;;;;;;1.63;1.08;;;;;;;17.84;60.22;99846.47;10455955;28;20059;-62
2021/08/29 15:50:55;;;;;;;1.55;1.20;;;;;;;17.71;60.74;99843.25;10447201;28;20048;-61
2021/08/29 15:55:57;;;;;;;1.65;1.30;;;;;;;17.63;60.95;99847.56;10448528;28;20102;-62
2021/08/29 16:01:02;;;;;;;1.52;1.23;;;;;;;17.62;61.17;99852.03;10437473;28;20128;-61
2021/08/29 16:06:04;;;;;;;1.35;1.20;;;;;;;17.66;61.14;99853.44;10451859;28;20084;-62
2021/08/29 16:11:07;;;;;;;1.88;1.30;;;;;;;17.50;61.28;99852.31;10451512;28;20053;-61
2021/08/29 16:16:10;;;;;;;1.58;1.33;;;;;;;17.53;61.37;99850.22;10453566;28;20140;-61
2021/08/29 16:21:12;;;;;;;1.27;1.17;;;;;;;17.61;60.88;99842.41;10470507;28;20111;-62
2021/08/29 16:26:16;;;;;;;1.50;1.20;;;;;;;17.62;61.03;99844.09;10446935;28;20569;-61
2021/08/29 16:31:18;;;;;;;1.88;1.25;;;;;;;17.64;61.05;99839.50;10461908;28;20176;-61
2021/08/29 16:36:20;;;;;;;1.85;1.27;;;;;;;17.64;61.25;99836.88;10441442;28;20183;-61
2021/08/29 16:41:21;;;;;;;1.75;1.20;;;;;;;17.62;61.33;99833.53;10462081;28;20048;-61
2021/08/29 16:46:24;;;;;;;1.55;1.35;;;;;;;17.73;60.86;99838.66;10478477;28;20087;-61
2021/08/29 16:51:26;;;;;;;1.83;1.20;;;;;;;17.82;60.90;99835.19;10441902;28;20429;-61
2021/08/29 16:56:28;;;;;;;3.35;1.42;;;;;;;17.82;60.97;99837.84;10441336;28;20136;-61
2021/08/29 17:01:30;;;;;;;2.35;1.60;;;;;;;18.08;60.56;99842.53;10433851;28;20093;-61
2021/08/29 17:06:33;;;;;;;3.25;1.45;;;;;;;18.15;60.67;99835.72;10433029;28;20477;-61
2021/08/29 17:11:36;;;;;;;1.35;1.20;;;;;;;18.24;59.92;99846.31;10447805;28;20049;-62
2021/08/29 17:16:38;;;;;;;2.50;1.30;;;;;;;18.20;60.89;99838.81;10446854;28;20072;-61
2021/08/29 17:21:40;;;;;;;4.60;2.00;;;;;;;17.97;61.08;99832.13;10447737;28;20080;-61
2021/08/29 17:26:42;;;;;;;4.03;2.10;;;;;;;17.81;61.33;99852.03;10446837;28;20193;-61
2021/08/29 17:31:43;;;;;;;2.58;1.60;;;;;;;17.61;62.00;99850.34;10445164;28;20131;-61
2021/08/29 17:36:45;;;;;;;2.97;1.40;;;;;;;17.67;62.32;99847.16;10438877;28;20048;-61
2021/08/29 17:41:47;;;;;;;3.42;1.23;;;;;;;17.76;61.42;99851.63;10446151;28;20128;-61
2021/08/29 17:46:49;;;;;;;2.10;1.20;;;;;;;17.57;61.63;99862.19;10444906;28;20469;-61
2021/08/29 17:51:51;;;;;;;1.33;1.20;;;;;;;17.48;61.22;99868.31;10446223;28;20539;-62
2021/08/29 17:56:52;;;;;;;2.15;1.35;;;;;;;17.19;61.95;99870.00;10445766;28;20096;-62
2021/08/29 18:01:54;;;;;;;1.67;1.20;;;;;;;17.13;62.24;99885.56;10443006;28;20131;-61
2021/08/29 18:06:57;;;;;;;4.88;1.33;;;;;;;17.03;61.80;99885.53;10438129;28;20057;-61
2021/08/29 18:11:59;;;;;;;3.13;1.38;;;;;;;16.96;62.39;99893.16;10444765;28;20555;-61
2021/08/29 18:17:01;;;;;;;1.27;1.08;;;;;;;16.88;62.22;99889.50;10445333;28;20076;-61
2021/08/29 18:22:03;;;;;;;1.75;1.40;;;;;;;16.88;62.43;99892.13;10443697;28;20053;-61
2021/08/29 18:27:05;;;;;;;5.53;2.10;;;;;;;16.85;62.30;99892.41;10443132;28;20452;-62
2021/08/29 18:32:07;;;;;;;5.05;3.05;;;;;;;16.75;62.90;99907.38;10434500;28;20454;-62
2021/08/29 18:37:09;;;;;;;2.88;2.00;;;;;;;16.53;63.40;99903.06;10432913;28;20136;-61
2021/08/29 18:42:10;;;;;;;2.70;1.85;;;;;;;16.48;63.78;99900.00;10450180;28;20076;-61
2021/08/29 18:47:13;;;;;;;6.05;2.30;;;;;;;16.35;64.25;99894.03;10451873;28;20139;-61
2021/08/29 18:52:15;;;;;;;3.13;1.88;;;;;;;16.20;64.72;99913.81;10448897;28;20443;-61
2021/08/29 18:57:17;;;;;;;3.53;1.92;;;;;;;16.13;65.05;99910.00;10438919;28;20056;-61
2021/08/29 19:02:22;;;;;;;12.57;3.45;;;;;;;15.99;65.73;99919.06;10451502;28;20140;-62
2021/08/29 19:07:25;;;;;;;3.90;2.20;;;;;;;15.94;65.64;99921.22;10442899;28;20069;-66
2021/08/29 19:12:28;;;;;;;6.88;2.42;;;;;;;15.79;65.81;99930.41;10452073;28;20135;-66
2021/08/29 19:17:29;;;;;;;2.72;2.15;;;;;;;15.79;66.02;99937.47;10438013;28;20075;-66
2021/08/29 19:22:32;;;;;;;5.00;2.20;;;;;;;15.90;66.21;99945.31;10440595;28;20081;-66
2021/08/29 19:27:35;;;;;;;3.95;2.10;;;;;;;15.96;65.71;99937.75;10427036;28;20084;-66
2021/08/29 19:32:37;;;;;;;3.05;2.10;;;;;;;15.89;65.96;99917.28;10451399;28;20120;-66
2021/08/29 19:37:39;;;;;;;3.55;2.20;;;;;;;15.84;66.18;99915.03;10445031;28;20077;-66
2021/08/29 19:42:41;;;;;;;4.35;2.40;;;;;;;15.74;65.85;99910.63;10450063;28;20045;-67
2021/08/29 19:47:43;;;;;;;5.00;2.58;;;;;;;15.62;66.23;99917.72;10450279;28;20085;-66
2021/08/29 19:52:44;;;;;;;5.75;2.70;;;;;;;15.48;66.74;99910.06;10442581;28;20084;-66
2021/08/29 19:57:46;;;;;;;5.10;2.60;;;;;;;15.43;66.93;99913.06;10442923;28;20468;-66
2021/08/29 20:02:48;;;;;;;4.20;2.60;;;;;;;15.36;67.29;99913.69;10449022;28;20156;-66
2021/08/29 20:07:51;;;;;;;5.72;2.70;;;;;;;15.52;66.69;99913.31;10435897;28;20057;-66
2021/08/29 20:12:54;;;;;;;6.00;2.75;;;;;;;15.59;67.00;99912.69;10451114;28;20083;-67
2021/08/29 20:17:58;;;;;;;4.32;2.65;;;;;;;15.74;66.33;99911.47;10447292;28;20478;-67
2021/08/29 20:23:00;;;;;;;4.05;2.67;;;;;;;15.79;66.31;99913.72;10429993;28;20041;-67
2021/08/29 20:28:02;;;;;;;5.50;2.65;;;;;;;15.76;66.51;99912.16;10447127;28;20140;-67
2021/08/29 20:33:03;;;;;;;4.10;2.70;;;;;;;15.76;66.32;99908.69;10447446;28;20128;-67
2021/08/29 20:38:09;;;;;;;4.32;2.85;;;;;;;15.82;66.48;99913.47;10447395;28;20140;-66
2021/08/29 20:43:10;;;;;;;3.58;2.97;;;;;;;15.92;66.26;99909.13;10446769;28;20132;-67
2021/08/29 20:48:12;;;;;;;4.88;3.10;;;;;;;15.88;66.14;99903.25;10446854;28;20084;-67
2021/08/29 20:53:14;;;;;;;8.27;3.97;;;;;;;15.92;66.29;99902.03;10447336;28;20099;-66
2021/08/29 20:58:16;;;;;;;5.45;3.80;;;;;;;15.88;66.68;99897.97;10446604;28;20083;-66
2021/08/29 21:03:17;;;;;;;4.68;3.55;;;;;;;15.92;66.42;99903.84;10447133;28;20694;-66
2021/08/29 21:08:19;;;;;;;4.63;3.75;;;;;;;15.97;66.58;99901.66;10431495;28;20057;-66
2021/08/29 21:13:21;;;;;;;5.05;3.67;;;;;;;15.92;66.81;99894.13;10441227;28;20088;-66
2021/08/29 21:18:22;;;;;;;5.50;4.05;;;;;;;15.90;66.78;99895.22;10428334;28;20049;-66
2021/08/29 21:23:24;;;;;;;6.05;3.97;;;;;;;15.93;66.99;99893.19;10440641;28;20132;-66
2021/08/29 21:28:27;;;;;;;5.95;4.10;;;;;;;15.98;66.85;99898.06;10444502;28;20055;-66
2021/08/29 21:33:28;;;;;;;5.72;4.13;;;;;;;16.03;66.83;99895.88;10446304;28;20386;-67
2021/08/29 21:38:30;;;;;;;4.85;4.07;;;;;;;16.01;66.90;99898.66;10445099;28;20132;-66
2021/08/29 21:43:32;;;;;;;9.73;4.55;;;;;;;16.05;66.95;99894.81;10445879;28;20057;-66
2021/08/29 21:48:34;;;;;;;5.88;4.20;;;;;;;16.04;67.31;99892.31;10444058;28;20136;-66
2021/08/29 21:53:36;;;;;;;8.05;4.70;;;;;;;16.09;67.16;99890.09;10441207;28;20131;-66
2021/08/29 21:58:38;;;;;;;9.25;4.80;;;;;;;16.16;66.96;99886.81;10438141;28;20049;-66
2021/08/29 22:03:39;;;;;;;6.32;4.85;;;;;;;16.22;67.16;99888.94;10439878;28;20116;-66
2021/08/29 22:08:41;;;;;;;5.85;4.40;;;;;;;16.20;67.09;99885.59;10432920;28;20069;-66
2021/08/29 22:13:43;;;;;;;6.57;4.47;;;;;;;16.18;66.95;99892.81;10442183;28;20505;-66
2021/08/29 22:18:45;;;;;;;9.32;4.80;;;;;;;16.23;67.22;99889.78;10439802;28;20164;-66
2021/08/29 22:23:47;;;;;;;9.15;5.10;;;;;;;16.20;67.15;99890.88;10443187;28;20068;-66
2021/08/29 22:28:48;;;;;;;10.68;4.45;;;;;;;16.20;67.43;99887.41;10425228;28;20081;-67
2021/08/29 22:33:50;;;;;;;6.43;4.38;;;;;;;16.23;67.32;99884.50;10441721;28;20151;-66
2021/08/29 22:38:52;;;;;;;5.78;4.57;;;;;;;16.15;67.33;99890.44;10441399;28;20081;-66
2021/08/29 22:43:53;;;;;;;5.75;3.90;;;;;;;16.16;67.32;99886.81;10442587;28;20072;-66
2021/08/29 22:48:56;;;;;;;8.05;4.45;;;;;;;16.14;67.50;99886.09;10441552;28;20569;-66
2021/08/29 22:53:57;;;;;;;12.32;4.50;;;;;;;16.10;67.36;99884.69;10442410;28;20080;-66
2021/08/29 22:59:01;;;;;;;5.03;4.00;;;;;;;15.99;67.69;99881.28;10439881;28;20501;-66
2021/08/29 23:04:04;;;;;;;6.05;3.85;;;;;;;15.86;67.94;99877.97;10442166;28;20091;-66
2021/08/29 23:09:06;;;;;;;7.40;3.90;;;;;;;15.69;68.49;99882.00;10441329;28;20092;-66
2021/08/29 23:14:08;;;;;;;7.57;4.57;;;;;;;15.61;68.38;99889.72;10441485;28;20140;-66
2021/08/29 23:19:09;;;;;;;7.70;4.75;;;;;;;15.53;68.31;99883.38;10446309;28;20136;-66
2021/08/29 23:24:11;;;;;;;6.20;5.00;;;;;;;15.44;68.56;99882.28;10449653;28;20053;-67
2021/08/29 23:29:13;;;;;;;13.05;5.93;;;;;;;15.33;68.93;99879.66;10447306;28;20077;-66